createdAt,value
2018-11-07T00:01:10.158Z,9.70
2018-11-07T00:03:40.043Z,10.37
2018-11-07T00:06:25.550Z,10.73
2018-11-07T00:09:00.171Z,10.17
2018-11-07T00:11:37.271Z,10.23
2018-11-07T00:14:06.315Z,10.47
2018-11-07T00:16:35.234Z,10.57
2018-11-07T00:19:14.890Z,9.90
2018-11-07T00:21:44.274Z,10.13
2018-11-07T00:24:13.133Z,9.80
2018-11-07T00:26:42.036Z,10.27
2018-11-07T00:32:15.631Z,10.37
2018-11-07T00:34:44.550Z,10.60
2018-11-07T00:37:18.382Z,10.00
2018-11-07T00:39:47.292Z,9.97
2018-11-07T00:42:40.798Z,10.43
2018-11-07T00:45:11.464Z,10.07
2018-11-07T00:47:41.552Z,9.73
2018-11-07T00:50:13.190Z,9.50
2018-11-07T00:52:42.635Z,10.00
2018-11-07T01:00:59.118Z,8.87
2018-11-07T01:03:31.745Z,9.43
2018-11-07T01:06:04.803Z,8.80
2018-11-07T01:11:36.734Z,9.10
2018-11-07T01:14:06.798Z,9.20
2018-11-07T01:16:35.874Z,8.57
2018-11-07T01:19:11.477Z,8.33
2018-11-07T01:21:42.480Z,9.23
2018-11-07T01:24:11.407Z,8.40
2018-11-07T01:26:53.560Z,9.03
2018-11-07T01:29:25.592Z,8.60
2018-11-07T01:31:54.597Z,8.43
2018-11-07T01:34:28.304Z,8.53
2018-11-07T01:36:58.189Z,9.30
2018-11-07T01:39:39.493Z,8.73
2018-11-07T01:42:20.103Z,8.67
2018-11-07T01:44:55.096Z,8.13
2018-11-07T01:47:23.991Z,8.33
2018-11-07T01:49:52.880Z,8.57
2018-11-07T01:52:21.744Z,8.33
2018-11-07T01:54:56.319Z,8.73
2018-11-07T01:57:38.105Z,8.40
2018-11-07T02:00:09.121Z,8.40
2018-11-07T02:02:38.026Z,8.40
2018-11-07T02:05:06.988Z,8.70
2018-11-07T02:07:35.928Z,8.63
2018-11-07T02:10:09.693Z,8.47
2018-11-07T02:12:46.483Z,8.23
2018-11-07T02:15:15.388Z,8.03
2018-11-07T02:17:44.257Z,8.70
2018-11-07T02:20:18.945Z,8.23
2018-11-07T02:22:47.832Z,8.40
2018-11-07T02:25:16.746Z,7.97
2018-11-07T02:27:45.642Z,8.67
2018-11-07T02:30:16.612Z,8.13
2018-11-07T02:32:45.752Z,8.17
2018-11-07T02:35:14.639Z,8.10
2018-11-07T02:37:48.515Z,9.00
2018-11-07T02:40:17.916Z,8.37
2018-11-07T02:42:46.917Z,8.37
2018-11-07T02:45:18.996Z,8.30
2018-11-07T02:47:52.689Z,7.87
2018-11-07T02:50:21.613Z,8.17
2018-11-07T02:53:03.759Z,8.33
2018-11-07T02:55:44.987Z,7.67
2018-11-07T02:58:13.967Z,7.67
2018-11-07T03:00:46.117Z,7.83
2018-11-07T03:03:24.549Z,8.30
2018-11-07T03:05:57.902Z,7.97
2018-11-07T03:08:32.793Z,7.87
2018-11-07T03:13:58.204Z,8.30
2018-11-07T03:16:35.452Z,8.33
2018-11-07T03:19:04.696Z,8.10
2018-11-07T03:21:37.209Z,8.10
2018-11-07T03:24:13.980Z,7.40
2018-11-07T03:26:42.864Z,7.50
2018-11-07T03:29:11.818Z,7.57
2018-11-07T03:31:40.729Z,8.40
2018-11-07T03:34:34.016Z,8.20
2018-11-07T03:37:08.384Z,7.90
2018-11-07T03:39:38.335Z,8.00
2018-11-07T03:42:15.383Z,7.90
2018-11-07T03:44:44.369Z,7.47
2018-11-07T03:47:13.252Z,7.57
2018-11-07T03:49:42.142Z,7.07
2018-11-07T03:52:11.053Z,7.20
2018-11-07T03:54:39.896Z,7.53
2018-11-07T04:00:09.622Z,6.77
2018-11-07T04:02:38.946Z,6.53
2018-11-07T04:05:09.302Z,6.80
2018-11-07T04:07:41.511Z,6.83
2018-11-07T04:10:10.438Z,6.67
2018-11-07T04:12:39.365Z,6.93
2018-11-07T04:15:08.831Z,6.77
2018-11-07T04:17:40.590Z,7.00
2018-11-07T04:20:21.378Z,6.93
2018-11-07T04:22:50.216Z,6.70
2018-11-07T04:25:19.089Z,6.50
2018-11-07T04:27:47.980Z,6.30
2018-11-07T04:30:29.754Z,6.27
2018-11-07T04:32:58.720Z,6.33
2018-11-07T04:35:27.648Z,6.80
2018-11-07T04:38:02.138Z,6.50
2018-11-07T04:40:31.513Z,6.00
2018-11-07T04:43:03.466Z,5.20
2018-11-07T04:45:36.002Z,6.23
2018-11-07T04:48:06.280Z,5.60
2018-11-07T04:50:48.206Z,6.53
2018-11-07T04:53:26.899Z,5.60
2018-11-07T04:55:56.819Z,6.07
2018-11-07T04:58:37.064Z,5.93
2018-11-07T05:01:12.896Z,5.90
2018-11-07T05:03:43.931Z,5.70
2018-11-07T05:06:14.924Z,5.37
2018-11-07T05:08:55.971Z,5.93
2018-11-07T05:11:28.899Z,5.43
2018-11-07T05:14:02.572Z,5.67
2018-11-07T05:16:45.784Z,5.60
2018-11-07T05:19:26.717Z,5.50
2018-11-07T05:22:03.760Z,5.07
2018-11-07T05:24:33.687Z,5.30
2018-11-07T05:27:26.015Z,5.53
2018-11-07T05:29:55.976Z,4.73
2018-11-07T05:32:38.574Z,4.80
2018-11-07T05:35:10.892Z,4.97
2018-11-07T05:37:45.982Z,4.80
2018-11-07T05:40:16.995Z,4.67
2018-11-07T05:42:56.729Z,4.87
2018-11-07T05:45:32.611Z,4.97
2018-11-07T05:48:01.592Z,5.10
2018-11-07T05:50:31.519Z,5.00
2018-11-07T05:53:00.493Z,4.57
2018-11-07T05:55:36.619Z,4.80
2018-11-07T05:58:11.273Z,4.50
2018-11-07T06:00:43.845Z,4.73
2018-11-07T06:03:28.878Z,4.53
2018-11-07T06:05:57.800Z,4.40
2018-11-07T06:08:26.716Z,4.13
2018-11-07T06:10:55.656Z,4.33
2018-11-07T06:13:31.999Z,4.27
2018-11-07T06:16:09.115Z,4.57
2018-11-07T06:18:38.009Z,4.30
2018-11-07T06:21:08.341Z,4.67
2018-11-07T06:23:51.496Z,4.43
2018-11-07T06:26:36.655Z,4.67
2018-11-07T06:29:08.945Z,4.60
2018-11-07T06:31:41.898Z,4.10
2018-11-07T06:34:11.907Z,4.33
2018-11-07T06:36:46.375Z,4.13
2018-11-07T06:39:21.018Z,4.13
2018-11-07T06:41:59.547Z,4.33
2018-11-07T06:44:28.620Z,4.20
2018-11-07T06:46:59.429Z,4.10
2018-11-07T06:49:45.406Z,4.07
2018-11-07T06:52:17.597Z,4.10
2018-11-07T06:55:01.103Z,3.70
2018-11-07T07:00:34.015Z,3.63
2018-11-07T07:03:05.798Z,3.57
2018-11-07T07:05:35.726Z,3.80
2018-11-07T07:08:20.739Z,3.13
2018-11-07T07:10:54.782Z,3.50
2018-11-07T07:13:25.835Z,2.93
2018-11-07T07:15:55.818Z,3.50
2018-11-07T07:18:24.740Z,3.07
2018-11-07T07:20:57.226Z,3.03
2018-11-07T07:23:43.093Z,3.00
2018-11-07T07:26:28.899Z,3.63
2018-11-07T07:32:04.461Z,2.87
2018-11-07T07:34:33.432Z,3.07
2018-11-07T07:37:15.445Z,3.00
2018-11-07T07:39:49.250Z,2.53
2018-11-07T07:42:20.316Z,2.80
2018-11-07T07:44:51.244Z,3.13
2018-11-07T07:47:26.240Z,2.93
2018-11-07T07:50:07.117Z,2.73
2018-11-07T07:52:41.841Z,3.07
2018-11-07T07:55:14.635Z,2.40
2018-11-07T07:57:53.430Z,2.93
2018-11-07T08:00:41.807Z,2.80
2018-11-07T08:03:11.893Z,2.97
2018-11-07T08:05:55.540Z,2.87
2018-11-07T08:08:43.697Z,2.83
2018-11-07T08:11:16.685Z,2.60
2018-11-07T08:13:58.434Z,2.30
2018-11-07T08:16:34.876Z,2.47
2018-11-07T08:24:57.571Z,2.47
2018-11-07T08:27:30.850Z,2.57
2018-11-07T08:35:53.341Z,2.47
2018-11-07T08:38:22.360Z,2.90
2018-11-07T08:40:51.274Z,2.57
2018-11-07T08:46:25.625Z,2.67
2018-11-07T08:48:58.111Z,2.23
2018-11-07T08:51:30.797Z,2.60
2018-11-07T08:54:05.576Z,2.30
2018-11-07T08:56:37.586Z,2.80
2018-11-07T08:59:07.677Z,3.00
2018-11-07T09:01:48.492Z,2.47
2018-11-07T09:04:29.305Z,2.30
2018-11-07T09:07:01.352Z,2.00
2018-11-07T09:09:31.396Z,2.37
2018-11-07T09:12:03.795Z,2.20
2018-11-07T09:14:32.734Z,2.20
2018-11-07T09:17:07.021Z,2.10
2018-11-07T09:19:39.808Z,1.90
2018-11-07T09:22:08.711Z,2.30
2018-11-07T09:24:49.569Z,2.30
2018-11-07T09:27:18.449Z,2.10
2018-11-07T09:29:47.313Z,2.27
2018-11-07T09:32:16.205Z,2.23
2018-11-07T09:34:46.662Z,2.13
2018-11-07T09:37:15.579Z,2.20
2018-11-07T09:39:44.495Z,2.03
2018-11-07T09:42:24.661Z,1.80
2018-11-07T09:45:12.090Z,2.07
2018-11-07T09:47:41.962Z,2.00
2018-11-07T09:50:13.685Z,1.97
2018-11-07T09:52:44.029Z,1.80
2018-11-07T09:58:09.106Z,1.87
2018-11-07T10:00:42.784Z,1.73
2018-11-07T10:03:19.465Z,1.50
2018-11-07T10:05:59.488Z,2.00
2018-11-07T10:08:47.015Z,1.53
2018-11-07T10:11:39.620Z,1.70
2018-11-07T10:14:12.410Z,2.23
2018-11-07T10:16:42.358Z,1.60
2018-11-07T10:19:13.305Z,1.60
2018-11-07T10:21:43.269Z,1.87
2018-11-07T10:24:31.755Z,1.90
2018-11-07T10:27:00.779Z,2.10
2018-11-07T10:29:29.774Z,1.67
2018-11-07T10:31:58.452Z,1.83
2018-11-07T10:34:27.382Z,2.20
2018-11-07T10:36:56.323Z,1.60
2018-11-07T10:39:35.390Z,1.50
2018-11-07T10:42:04.269Z,2.00
2018-11-07T10:44:33.193Z,1.90
2018-11-07T10:47:02.123Z,1.60
2018-11-07T10:49:31.026Z,1.50
2018-11-07T10:52:18.618Z,1.47
2018-11-07T10:54:47.476Z,1.60
2018-11-07T10:57:16.360Z,1.50
2018-11-07T10:59:45.222Z,1.60
2018-11-07T11:02:26.808Z,1.60
2018-11-07T11:04:57.785Z,1.60
2018-11-07T11:07:40.101Z,1.80
2018-11-07T11:10:09.068Z,1.60
2018-11-07T11:12:37.917Z,1.60
2018-11-07T11:15:06.836Z,2.53
2018-11-07T11:17:39.259Z,1.50
2018-11-07T11:20:15.756Z,1.87
2018-11-07T11:22:44.630Z,1.83
2018-11-07T11:25:13.568Z,1.67
2018-11-07T11:27:42.438Z,1.30
2018-11-07T11:30:11.302Z,1.40
2018-11-07T11:32:40.393Z,1.20
2018-11-07T11:35:14.060Z,1.50
2018-11-07T11:37:51.105Z,1.20
2018-11-07T11:40:23.709Z,1.30
2018-11-07T11:42:52.559Z,1.60
2018-11-07T11:45:45.515Z,1.20
2018-11-07T11:48:27.100Z,1.23
2018-11-07T11:51:01.434Z,1.27
2018-11-07T11:53:34.438Z,1.20
2018-11-07T11:56:03.311Z,1.43
2018-11-07T11:58:32.227Z,1.20
2018-11-07T12:01:01.110Z,1.20
2018-11-07T12:03:30.145Z,1.27
2018-11-07T12:05:59.653Z,1.60
2018-11-07T12:08:29.189Z,1.43
2018-11-07T12:10:58.033Z,1.50
2018-11-07T12:13:33.094Z,1.30
2018-11-07T12:16:01.946Z,1.40
2018-11-07T12:18:30.812Z,1.20
2018-11-07T12:21:07.002Z,1.60
2018-11-07T12:23:35.944Z,1.37
2018-11-07T12:26:04.907Z,1.60
2018-11-07T12:28:33.824Z,1.70
2018-11-07T12:31:02.724Z,1.30
2018-11-07T12:33:38.919Z,1.47
2018-11-07T12:36:07.981Z,1.40
2018-11-07T12:38:37.927Z,1.60
2018-11-07T12:41:12.633Z,1.53
2018-11-07T12:43:48.510Z,1.30
2018-11-07T12:46:30.692Z,1.50
2018-11-07T12:49:12.508Z,1.60
2018-11-07T12:52:00.500Z,1.40
2018-11-07T12:54:29.384Z,1.60
2018-11-07T12:56:58.300Z,1.37
2018-11-07T12:59:30.268Z,1.20
2018-11-07T13:01:59.143Z,1.20
2018-11-07T13:04:28.093Z,1.40
2018-11-07T13:09:57.481Z,1.20
2018-11-07T13:12:26.402Z,1.13
2018-11-07T13:14:59.230Z,1.10
2018-11-07T13:17:42.864Z,1.10
2018-11-07T13:20:14.061Z,0.90
2018-11-07T13:22:43.942Z,0.90
2018-11-07T13:25:16.021Z,1.10
2018-11-07T13:27:51.508Z,1.23
2018-11-07T13:30:26.561Z,0.93
2018-11-07T13:33:01.417Z,1.17
2018-11-07T13:35:34.633Z,0.80
2018-11-07T13:38:05.137Z,0.70
2018-11-07T13:40:35.465Z,1.20
2018-11-07T13:43:04.898Z,0.97
2018-11-07T13:45:37.492Z,1.07
2018-11-07T13:48:19.139Z,1.10
2018-11-07T13:50:48.062Z,1.30
2018-11-07T13:53:20.593Z,1.10
2018-11-07T13:55:54.408Z,1.10
2018-11-07T14:01:20.779Z,1.00
2018-11-07T14:03:55.428Z,0.80
2018-11-07T14:12:13.492Z,1.07
2018-11-07T14:14:53.751Z,1.00
2018-11-07T14:17:22.724Z,0.90
2018-11-07T14:20:02.569Z,1.30
2018-11-07T14:22:31.452Z,0.90
2018-11-07T14:27:54.416Z,1.10
2018-11-07T14:30:23.204Z,1.00
2018-11-07T14:33:10.314Z,1.10
2018-11-07T14:35:57.037Z,1.20
2018-11-07T14:38:48.857Z,1.37
2018-11-07T14:41:18.766Z,1.00
2018-11-07T14:43:53.853Z,1.10
2018-11-07T14:46:28.359Z,1.10
2018-11-07T14:49:12.428Z,1.00
2018-11-07T14:51:42.447Z,1.37
2018-11-07T14:54:33.935Z,1.30
2018-11-07T14:57:17.349Z,1.20
2018-11-07T14:59:47.279Z,1.13
2018-11-07T15:05:16.723Z,1.30
2018-11-07T15:07:45.892Z,1.20
2018-11-07T15:10:20.557Z,1.60
2018-11-07T15:15:50.145Z,1.30
2018-11-07T15:21:17.931Z,1.10
2018-11-07T15:23:58.991Z,1.40
2018-11-07T15:29:22.274Z,1.30
2018-11-07T15:31:57.894Z,1.13
2018-11-07T15:34:30.744Z,1.20
2018-11-07T15:37:09.596Z,1.30
2018-11-07T15:39:46.652Z,1.43
2018-11-07T15:42:15.604Z,1.67
2018-11-07T15:44:57.523Z,1.70
2018-11-07T15:47:30.327Z,2.07
2018-11-07T15:50:05.498Z,2.17
2018-11-07T15:52:42.224Z,2.33
2018-11-07T15:55:25.246Z,2.10
2018-11-07T15:58:06.322Z,2.57
2018-11-07T16:00:41.739Z,4.07
2018-11-07T16:03:25.618Z,4.63
2018-11-07T16:05:54.765Z,5.70
2018-11-07T16:08:31.788Z,6.03
2018-11-07T16:11:02.886Z,4.00
2018-11-07T16:13:37.867Z,2.93
2018-11-07T16:16:07.061Z,3.23
2018-11-07T16:18:40.232Z,3.93
2018-11-07T16:21:15.042Z,3.50
2018-11-07T16:23:43.901Z,2.90
2018-11-07T16:26:34.975Z,3.77
2018-11-07T16:29:11.011Z,3.50
2018-11-07T16:34:34.189Z,3.40
2018-11-07T16:37:03.122Z,2.90
2018-11-07T16:39:31.992Z,3.10
2018-11-07T16:42:01.082Z,2.73
2018-11-07T16:44:35.948Z,2.40
2018-11-07T16:47:05.028Z,3.20
2018-11-07T16:49:39.235Z,3.53
2018-11-07T16:52:22.172Z,2.87
2018-11-07T16:54:53.108Z,2.90
2018-11-07T16:57:22.117Z,3.33
2018-11-07T16:59:55.295Z,2.70
2018-11-07T17:02:25.341Z,2.70
2018-11-07T17:04:54.298Z,2.63
2018-11-07T17:07:24.312Z,2.60
2018-11-07T17:10:02.710Z,2.50
2018-11-07T17:12:32.618Z,2.73
2018-11-07T17:15:13.922Z,2.70
2018-11-07T17:17:42.890Z,2.77
2018-11-07T17:20:14.038Z,2.70
2018-11-07T17:22:45.046Z,2.70
2018-11-07T17:25:26.038Z,3.10
2018-11-07T17:27:55.468Z,3.20
2018-11-07T17:30:24.899Z,3.60
2018-11-07T17:32:59.933Z,3.63
2018-11-07T17:35:33.001Z,3.20
2018-11-07T17:38:02.569Z,3.10
2018-11-07T17:40:36.088Z,3.40
2018-11-07T17:46:03.243Z,3.30
2018-11-07T17:48:39.591Z,3.70
2018-11-07T17:51:09.936Z,3.70
2018-11-07T17:53:39.482Z,4.10
2018-11-07T17:56:14.792Z,3.40
2018-11-07T17:58:48.226Z,3.80
2018-11-07T18:01:21.880Z,3.33
2018-11-07T18:03:57.728Z,3.40
2018-11-07T18:06:26.632Z,3.87
2018-11-07T18:08:57.586Z,3.10
2018-11-07T18:11:45.119Z,3.30
2018-11-07T18:14:14.048Z,3.07
2018-11-07T18:16:43.002Z,3.67
2018-11-07T18:19:16.576Z,3.40
2018-11-07T18:21:46.547Z,3.50
2018-11-07T18:24:15.405Z,3.60
2018-11-07T18:26:48.296Z,3.83
2018-11-07T18:29:30.368Z,3.93
2018-11-07T18:32:06.920Z,4.37
2018-11-07T18:34:36.760Z,5.60
2018-11-07T18:37:06.688Z,5.93
2018-11-07T18:39:36.900Z,4.27
2018-11-07T18:42:17.966Z,4.70
2018-11-07T18:44:50.906Z,3.80
2018-11-07T18:47:23.908Z,3.60
2018-11-07T18:49:57.678Z,4.13
2018-11-07T18:52:30.777Z,4.20
2018-11-07T18:54:59.780Z,4.10
2018-11-07T18:57:40.517Z,4.00
2018-11-07T19:00:21.447Z,2.83
2018-11-07T19:02:54.838Z,2.70
2018-11-07T19:05:23.765Z,2.63
2018-11-07T19:07:59.584Z,2.50
2018-11-07T19:10:34.283Z,2.17
2018-11-07T19:13:04.275Z,1.83
2018-11-07T19:15:37.852Z,2.13
2018-11-07T19:18:13.518Z,2.60
2018-11-07T19:20:55.826Z,1.87
2018-11-07T19:23:29.750Z,1.80
2018-11-07T19:25:58.655Z,1.87
2018-11-07T19:28:40.726Z,1.70
2018-11-07T19:31:13.409Z,1.67
2018-11-07T19:33:42.316Z,2.23
2018-11-07T19:36:13.238Z,1.90
2018-11-07T19:38:42.243Z,1.67
2018-11-07T19:41:11.273Z,1.80
2018-11-07T19:43:46.820Z,2.00
2018-11-07T19:46:30.011Z,1.80
2018-11-07T19:49:07.013Z,2.00
2018-11-07T19:51:39.172Z,1.90
2018-11-07T19:54:08.244Z,1.60
2018-11-07T19:56:37.193Z,1.90
2018-11-07T19:59:11.384Z,1.80
2018-11-07T20:01:40.358Z,1.70
2018-11-07T20:04:12.610Z,1.80
2018-11-07T20:06:47.056Z,1.60
2018-11-07T20:09:23.897Z,1.60
2018-11-07T20:11:57.318Z,1.87
2018-11-07T20:14:32.722Z,1.63
2018-11-07T20:17:09.812Z,1.80
2018-11-07T20:19:43.301Z,1.77
2018-11-07T20:22:17.013Z,1.77
2018-11-07T20:24:47.745Z,1.60
2018-11-07T20:27:27.343Z,2.00
2018-11-07T20:30:01.130Z,2.40
2018-11-07T20:32:33.636Z,2.53
2018-11-07T20:35:14.036Z,2.03
2018-11-07T20:38:00.887Z,2.10
2018-11-07T20:40:37.054Z,2.10
2018-11-07T20:43:06.480Z,2.13
2018-11-07T20:45:37.437Z,2.03
2018-11-07T20:48:08.390Z,2.00
2018-11-07T20:53:44.176Z,2.00
2018-11-07T20:56:14.236Z,1.80
2018-11-07T20:58:45.143Z,1.90
2018-11-07T21:01:16.104Z,2.60
2018-11-07T21:03:45.127Z,2.33
2018-11-07T21:06:19.883Z,2.57
2018-11-07T21:09:01.761Z,2.40
2018-11-07T21:11:38.945Z,2.00
2018-11-07T21:14:08.975Z,2.43
2018-11-07T21:16:46.059Z,2.60
2018-11-07T21:19:20.233Z,2.40
2018-11-07T21:22:07.525Z,2.23
2018-11-07T21:24:36.584Z,1.97
2018-11-07T21:27:05.641Z,2.33
2018-11-07T21:29:37.729Z,2.40
2018-11-07T21:32:08.686Z,2.27
2018-11-07T21:34:37.616Z,2.37
2018-11-07T21:37:09.639Z,2.37
2018-11-07T21:39:40.553Z,2.40
2018-11-07T21:42:09.708Z,2.00
2018-11-07T21:44:42.384Z,2.37
2018-11-07T21:47:17.472Z,2.17
2018-11-07T21:49:54.118Z,2.37
2018-11-07T21:52:25.004Z,2.50
2018-11-07T21:55:01.504Z,2.87
2018-11-07T21:57:37.971Z,2.80
2018-11-07T22:00:12.992Z,2.77
2018-11-07T22:02:42.157Z,2.60
2018-11-07T22:05:19.102Z,2.50
2018-11-07T22:08:00.299Z,2.77
2018-11-07T22:10:31.449Z,2.53
2018-11-07T22:13:04.196Z,2.80
2018-11-07T22:15:38.739Z,2.60
2018-11-07T22:21:04.943Z,1.90
2018-11-07T22:23:41.172Z,2.20
2018-11-07T22:29:03.512Z,2.20
2018-11-07T22:31:45.140Z,2.43
2018-11-07T22:34:14.174Z,2.00
2018-11-07T22:37:01.243Z,2.53
2018-11-07T22:39:52.672Z,2.87
2018-11-07T22:42:33.486Z,2.17
2018-11-07T22:48:06.236Z,2.40
2018-11-07T22:50:39.668Z,2.17
2018-11-07T22:53:18.944Z,2.20
2018-11-07T22:56:01.859Z,2.13
2018-11-07T22:58:31.860Z,2.23
2018-11-07T23:01:13.189Z,2.20
2018-11-07T23:03:42.182Z,2.13
2018-11-07T23:06:17.778Z,2.20
2018-11-07T23:09:11.452Z,2.30
2018-11-07T23:11:47.733Z,2.43
2018-11-07T23:14:16.762Z,2.40
2018-11-07T23:16:52.029Z,2.50
2018-11-07T23:19:23.065Z,2.60
2018-11-07T23:27:39.645Z,2.40
2018-11-07T23:30:09.144Z,2.30
2018-11-07T23:32:38.133Z,2.73
2018-11-07T23:38:02.232Z,2.37
2018-11-07T23:40:31.591Z,1.93
2018-11-07T23:43:00.686Z,2.00
2018-11-07T23:45:29.620Z,2.43
2018-11-07T23:47:58.516Z,1.80
2018-11-07T23:50:31.410Z,2.20
2018-11-07T23:53:16.961Z,1.90
2018-11-07T23:55:54.625Z,2.10
